createdAt,value
2022-10-18T00:01:07.801Z,5.47
2022-10-18T00:03:36.588Z,8.57
2022-10-18T00:06:05.646Z,5.27
2022-10-18T00:08:35.007Z,4.10
2022-10-18T00:11:03.591Z,7.80
2022-10-18T00:13:31.677Z,4.73
2022-10-18T00:16:01.510Z,7.43
2022-10-18T00:18:30.161Z,3.77
2022-10-18T00:21:00.294Z,5.00
2022-10-18T00:23:29.606Z,3.97
2022-10-18T00:26:04.713Z,5.20
2022-10-18T00:28:33.610Z,6.03
2022-10-18T00:31:11.748Z,8.03
2022-10-18T00:33:39.754Z,4.33
2022-10-18T00:36:08.374Z,5.20
2022-10-18T00:38:37.044Z,4.77
2022-10-18T00:41:08.209Z,8.03
2022-10-18T00:43:55.316Z,6.00
2022-10-18T00:46:23.652Z,3.97
2022-10-18T00:51:28.778Z,4.93
2022-10-18T00:53:56.904Z,5.30
2022-10-18T00:56:26.718Z,4.90
2022-10-18T00:58:55.388Z,3.77
2022-10-18T01:01:27.449Z,4.40
2022-10-18T01:03:57.762Z,5.37
2022-10-18T01:06:28.143Z,4.03
2022-10-18T01:09:08.137Z,4.13
2022-10-18T01:11:59.491Z,4.30
2022-10-18T01:14:39.934Z,4.30
2022-10-18T01:17:18.175Z,4.90
2022-10-18T01:20:10.558Z,4.60
2022-10-18T01:22:44.853Z,3.70
2022-10-18T01:25:25.150Z,11.00
2022-10-18T01:28:02.922Z,8.60
2022-10-18T01:30:41.248Z,5.20
2022-10-18T01:33:19.574Z,5.07
2022-10-18T01:35:51.512Z,4.00
2022-10-18T01:38:21.845Z,4.17
2022-10-18T01:40:52.227Z,7.23
2022-10-18T01:43:22.618Z,6.40
2022-10-18T01:45:54.890Z,3.87
2022-10-18T01:48:23.775Z,3.30
2022-10-18T01:50:52.918Z,4.07
2022-10-18T01:53:31.995Z,4.40
2022-10-18T01:56:21.749Z,7.33
2022-10-18T01:59:06.452Z,4.90
2022-10-18T02:01:44.408Z,6.40
2022-10-18T02:04:32.605Z,4.57
2022-10-18T02:07:07.445Z,4.90
2022-10-18T02:09:42.533Z,4.17
2022-10-18T02:12:13.004Z,6.17
2022-10-18T02:14:43.004Z,4.57
2022-10-18T02:17:13.583Z,5.60
2022-10-18T02:19:45.015Z,4.47
2022-10-18T02:22:15.033Z,4.20
2022-10-18T02:24:45.841Z,4.80
2022-10-18T02:27:14.140Z,4.50
2022-10-18T02:29:43.314Z,7.80
2022-10-18T02:32:18.517Z,5.13
2022-10-18T02:34:50.326Z,5.30
2022-10-18T02:37:18.740Z,3.60
2022-10-18T02:39:49.127Z,7.87
2022-10-18T02:42:17.807Z,6.63
2022-10-18T02:44:45.897Z,4.90
2022-10-18T02:47:15.541Z,4.70
2022-10-18T02:49:43.647Z,4.10
2022-10-18T02:52:11.647Z,4.60
2022-10-18T02:54:39.649Z,4.30
2022-10-18T02:57:07.669Z,4.07
2022-10-18T02:59:35.684Z,5.73
2022-10-18T03:02:03.759Z,5.50
2022-10-18T03:04:33.282Z,4.07
2022-10-18T03:07:01.298Z,5.73
2022-10-18T03:09:31.039Z,4.97
2022-10-18T03:11:59.159Z,5.20
2022-10-18T03:14:27.185Z,3.80
2022-10-18T03:16:55.210Z,4.70
2022-10-18T03:19:23.556Z,4.30
2022-10-18T03:21:53.027Z,3.37
2022-10-18T03:24:21.158Z,3.60
2022-10-18T03:26:49.204Z,4.90
2022-10-18T03:29:17.343Z,3.50
2022-10-18T03:31:45.398Z,3.30
2022-10-18T03:34:13.388Z,6.03
2022-10-18T03:36:41.530Z,3.77
2022-10-18T03:39:12.719Z,3.70
2022-10-18T03:41:40.877Z,4.43
2022-10-18T03:44:09.112Z,4.43
2022-10-18T03:46:37.080Z,3.80
2022-10-18T03:49:05.248Z,7.03
2022-10-18T03:51:33.272Z,3.57
2022-10-18T03:54:01.321Z,3.30
2022-10-18T03:56:30.777Z,4.27
2022-10-18T03:58:58.752Z,4.80
2022-10-18T04:01:26.834Z,3.53
2022-10-18T04:03:55.008Z,3.30
2022-10-18T04:06:23.018Z,4.00
2022-10-18T04:08:51.042Z,3.73
2022-10-18T04:11:19.133Z,5.80
2022-10-18T04:13:48.645Z,4.37
2022-10-18T04:16:16.684Z,3.63
2022-10-18T04:18:44.741Z,3.70
2022-10-18T04:21:12.739Z,4.07
2022-10-18T04:23:40.775Z,3.70
2022-10-18T04:26:08.879Z,3.63
2022-10-18T04:28:40.058Z,4.17
2022-10-18T04:31:09.837Z,7.67
2022-10-18T04:33:38.063Z,4.17
2022-10-18T04:36:06.588Z,3.80
2022-10-18T04:38:34.883Z,4.70
2022-10-18T04:41:02.979Z,4.27
2022-10-18T04:43:31.155Z,6.87
2022-10-18T04:45:59.326Z,4.77
2022-10-18T04:48:28.703Z,4.63
2022-10-18T04:50:56.732Z,4.63
2022-10-18T04:53:24.778Z,4.40
2022-10-18T04:55:52.874Z,5.77
2022-10-18T04:58:21.151Z,4.20
2022-10-18T05:00:49.550Z,4.03
2022-10-18T05:03:18.273Z,4.53
2022-10-18T05:06:01.397Z,4.43
2022-10-18T05:08:31.377Z,4.00
2022-10-18T05:10:59.850Z,5.67
2022-10-18T05:13:27.881Z,5.60
2022-10-18T05:15:55.960Z,4.30
2022-10-18T05:18:23.974Z,5.20
2022-10-18T05:20:53.345Z,4.97
2022-10-18T05:23:21.473Z,7.60
2022-10-18T05:25:49.506Z,9.63
2022-10-18T05:28:38.838Z,6.30
2022-10-18T05:31:08.508Z,4.80
2022-10-18T05:33:37.009Z,5.20
2022-10-18T05:36:06.850Z,4.33
2022-10-18T05:41:07.799Z,4.97
2022-10-18T05:43:35.881Z,6.40
2022-10-18T05:46:04.796Z,3.90
2022-10-18T05:48:32.812Z,4.67
2022-10-18T05:51:01.712Z,5.40
2022-10-18T05:53:36.737Z,9.50
2022-10-18T05:56:06.300Z,5.50
2022-10-18T05:58:34.414Z,4.53
2022-10-18T06:01:03.379Z,6.27
2022-10-18T06:03:31.695Z,4.50
2022-10-18T06:06:02.977Z,9.10
2022-10-18T06:08:32.840Z,4.30
2022-10-18T06:11:00.985Z,5.50
2022-10-18T06:13:31.190Z,6.93
2022-10-18T06:16:00.795Z,5.63
2022-10-18T06:18:29.833Z,9.83
2022-10-18T06:20:59.247Z,7.63
2022-10-18T06:23:28.010Z,5.90
2022-10-18T06:26:00.121Z,4.60
2022-10-18T06:28:28.697Z,4.87
2022-10-18T06:30:57.075Z,6.43
2022-10-18T06:33:25.672Z,5.57
2022-10-18T06:35:58.896Z,5.43
2022-10-18T06:38:27.295Z,6.10
2022-10-18T06:40:57.578Z,7.67
2022-10-18T06:43:26.631Z,4.63
2022-10-18T06:45:54.917Z,4.83
2022-10-18T06:48:23.441Z,7.57
2022-10-18T06:50:56.924Z,5.43
2022-10-18T06:53:25.242Z,7.23
2022-10-18T06:55:53.660Z,5.47
2022-10-18T06:58:23.216Z,4.90
2022-10-18T07:00:51.283Z,4.57
2022-10-18T07:03:19.261Z,4.57
2022-10-18T07:05:47.270Z,8.23
2022-10-18T07:08:15.533Z,4.70
2022-10-18T07:10:43.567Z,9.13
2022-10-18T07:13:31.374Z,4.30
2022-10-18T07:16:06.650Z,5.77
2022-10-18T07:18:35.738Z,5.53
2022-10-18T07:21:04.977Z,5.73
2022-10-18T07:23:34.181Z,5.30
2022-10-18T07:26:02.776Z,4.83
2022-10-18T07:28:31.052Z,8.30
2022-10-18T07:31:06.100Z,5.00
2022-10-18T07:33:37.924Z,7.27
2022-10-18T07:36:07.780Z,5.33
2022-10-18T07:38:36.348Z,4.50
2022-10-18T07:41:07.321Z,9.07
2022-10-18T07:43:36.330Z,4.50
2022-10-18T07:46:06.239Z,4.70
2022-10-18T07:48:35.781Z,4.63
2022-10-18T07:51:05.166Z,4.93
2022-10-18T07:53:34.555Z,5.20
2022-10-18T07:56:05.964Z,4.47
2022-10-18T07:58:37.398Z,5.53
2022-10-18T08:01:06.373Z,10.07
2022-10-18T08:03:36.539Z,4.83
2022-10-18T08:06:05.684Z,4.83
2022-10-18T08:08:33.793Z,5.03
2022-10-18T08:11:04.040Z,5.60
2022-10-18T08:13:32.085Z,6.77
2022-10-18T08:16:04.389Z,5.63
2022-10-18T08:18:32.797Z,9.63
2022-10-18T08:21:03.003Z,11.67
2022-10-18T08:23:31.136Z,5.00
2022-10-18T08:26:03.355Z,6.57
2022-10-18T08:28:31.442Z,7.57
2022-10-18T08:31:03.072Z,6.77
2022-10-18T08:33:31.141Z,6.53
2022-10-18T08:36:00.366Z,7.40
2022-10-18T08:38:32.336Z,15.97
2022-10-18T08:41:01.647Z,9.90
2022-10-18T08:46:04.593Z,5.80
2022-10-18T08:48:38.088Z,7.10
2022-10-18T08:51:14.689Z,7.13
2022-10-18T08:53:52.847Z,5.53
2022-10-18T08:56:24.193Z,8.43
2022-10-18T08:58:52.274Z,6.50
2022-10-18T09:01:31.292Z,4.30
2022-10-18T09:04:10.488Z,6.50
2022-10-18T09:06:45.701Z,5.17
2022-10-18T09:09:26.304Z,5.03
2022-10-18T09:12:04.113Z,4.57
2022-10-18T09:14:45.541Z,5.17
2022-10-18T09:17:25.211Z,3.93
2022-10-18T09:20:13.103Z,6.80
2022-10-18T09:22:52.327Z,3.93
2022-10-18T09:25:23.731Z,5.70
2022-10-18T09:27:55.218Z,4.73
2022-10-18T09:30:42.433Z,4.10
2022-10-18T09:33:33.340Z,5.63
2022-10-18T09:36:04.317Z,4.00
2022-10-18T09:38:38.897Z,4.83
2022-10-18T09:41:11.835Z,5.47
2022-10-18T09:43:48.779Z,4.10
2022-10-18T09:46:18.079Z,4.30
2022-10-18T09:48:50.223Z,4.50
2022-10-18T09:51:22.787Z,3.83
2022-10-18T09:54:13.710Z,4.40
2022-10-18T09:56:48.573Z,4.43
2022-10-18T09:59:38.274Z,4.27
2022-10-18T10:02:07.024Z,3.70
2022-10-18T10:04:35.208Z,3.43
2022-10-18T10:07:03.968Z,3.93
2022-10-18T10:09:37.752Z,3.50
2022-10-18T10:12:24.632Z,5.17
2022-10-18T10:14:52.712Z,3.90
2022-10-18T10:17:24.805Z,3.73
2022-10-18T10:20:00.141Z,2.87
2022-10-18T10:22:36.784Z,3.93
2022-10-18T10:25:06.604Z,3.53
2022-10-18T10:27:43.489Z,3.33
2022-10-18T10:30:24.896Z,5.80
2022-10-18T10:32:54.936Z,7.17
2022-10-18T10:35:41.359Z,4.80
2022-10-18T10:38:24.688Z,4.13
2022-10-18T10:40:53.127Z,4.83
2022-10-18T10:43:40.714Z,4.20
2022-10-18T10:46:10.823Z,4.77
2022-10-18T10:49:04.147Z,4.20
2022-10-18T10:51:42.587Z,5.00
2022-10-18T10:54:16.443Z,7.13
2022-10-18T10:56:55.301Z,5.57
2022-10-18T10:59:27.302Z,4.90
2022-10-18T11:02:20.565Z,3.97
2022-10-18T11:04:49.838Z,4.07
2022-10-18T11:07:24.528Z,4.13
2022-10-18T11:10:02.369Z,3.77
2022-10-18T11:12:34.946Z,4.00
2022-10-18T11:15:21.637Z,4.30
2022-10-18T11:18:03.541Z,4.90
2022-10-18T11:20:36.316Z,7.00
2022-10-18T11:23:08.473Z,4.17
2022-10-18T11:26:03.975Z,3.37
2022-10-18T11:28:56.505Z,4.97
2022-10-18T11:31:32.079Z,3.13
2022-10-18T11:34:24.475Z,4.47
2022-10-18T11:37:22.977Z,3.10
2022-10-18T11:39:58.281Z,3.53
2022-10-18T11:42:37.795Z,2.90
2022-10-18T11:45:22.829Z,2.60
2022-10-18T11:47:59.803Z,4.83
2022-10-18T11:50:33.670Z,2.43
2022-10-18T11:53:13.216Z,2.60
2022-10-18T11:55:50.505Z,3.57
2022-10-18T11:58:35.181Z,3.27
2022-10-18T12:01:09.259Z,3.60
2022-10-18T12:03:50.796Z,2.60
2022-10-18T12:06:23.199Z,4.63
2022-10-18T12:08:54.567Z,4.37
2022-10-18T12:11:27.341Z,3.30
2022-10-18T12:13:58.985Z,2.60
2022-10-18T12:16:50.045Z,4.70
2022-10-18T12:19:26.426Z,2.20
2022-10-18T12:21:58.808Z,2.10
2022-10-18T12:24:29.955Z,2.10
2022-10-18T12:27:00.787Z,2.10
2022-10-18T12:29:34.816Z,2.53
2022-10-18T12:32:09.904Z,2.57
2022-10-18T12:34:45.082Z,2.13
2022-10-18T12:37:32.607Z,2.00
2022-10-18T12:40:14.591Z,3.37
2022-10-18T12:42:48.210Z,2.47
2022-10-18T12:45:33.544Z,2.03
2022-10-18T12:48:03.706Z,1.70
2022-10-18T12:50:36.280Z,1.43
2022-10-18T12:53:08.604Z,4.83
2022-10-18T12:55:39.001Z,1.70
2022-10-18T12:58:31.466Z,1.80
2022-10-18T13:01:07.591Z,1.77
2022-10-18T13:03:56.415Z,2.33
2022-10-18T13:06:26.070Z,2.50
2022-10-18T13:09:17.792Z,3.10
2022-10-18T13:11:46.174Z,3.03
2022-10-18T13:14:31.527Z,4.73
2022-10-18T13:17:06.071Z,3.47
2022-10-18T13:19:41.888Z,3.33
2022-10-18T13:22:29.564Z,2.67
2022-10-18T13:25:04.274Z,2.60
2022-10-18T13:27:44.521Z,2.93
2022-10-18T13:30:31.398Z,2.27
2022-10-18T13:33:16.766Z,3.53
2022-10-18T13:35:54.827Z,2.40
2022-10-18T13:38:43.403Z,2.33
2022-10-18T13:41:14.127Z,2.07
2022-10-18T13:44:13.931Z,2.50
2022-10-18T13:47:18.965Z,2.95
2022-10-18T13:50:04.288Z,2.70
2022-10-18T13:52:52.784Z,3.87
2022-10-18T13:55:42.940Z,2.70
2022-10-18T13:58:22.429Z,2.97
2022-10-18T14:01:01.556Z,2.63
2022-10-18T14:04:02.217Z,2.90
2022-10-18T14:06:35.614Z,2.73
2022-10-18T14:09:14.292Z,2.40
2022-10-18T14:11:57.873Z,2.57
2022-10-18T14:14:34.425Z,2.50
2022-10-18T14:17:22.226Z,2.33
2022-10-18T14:19:55.523Z,3.17
2022-10-18T14:22:27.499Z,3.50
2022-10-18T14:24:57.208Z,4.70
2022-10-18T14:27:28.361Z,2.30
2022-10-18T14:30:10.752Z,2.30
2022-10-18T14:32:38.981Z,5.33
2022-10-18T14:35:34.069Z,2.60
2022-10-18T14:38:02.768Z,2.53
2022-10-18T14:40:34.844Z,3.30
2022-10-18T14:43:07.304Z,2.47
2022-10-18T14:45:35.460Z,2.63
2022-10-18T14:48:15.555Z,7.10
2022-10-18T14:50:45.655Z,3.23
2022-10-18T14:53:18.907Z,2.87
2022-10-18T14:55:55.358Z,2.90
2022-10-18T14:58:25.016Z,3.90
2022-10-18T15:00:54.191Z,2.63
2022-10-18T15:03:23.349Z,2.70
2022-10-18T15:05:56.802Z,2.80
2022-10-18T15:08:27.534Z,3.10
2022-10-18T15:10:55.805Z,2.60
2022-10-18T15:13:26.603Z,2.73
2022-10-18T15:15:55.156Z,2.60
2022-10-18T15:18:25.608Z,3.00
2022-10-18T15:21:23.134Z,3.03
2022-10-18T15:23:52.178Z,2.40
2022-10-18T15:26:26.486Z,3.80
2022-10-18T15:29:01.472Z,2.80
2022-10-18T15:31:35.457Z,2.80
2022-10-18T15:34:11.721Z,3.23
2022-10-18T15:36:40.130Z,3.67
2022-10-18T15:39:14.380Z,3.00
2022-10-18T15:41:46.754Z,3.20
2022-10-18T15:44:27.083Z,3.60
2022-10-18T15:46:57.359Z,3.77
2022-10-18T15:49:52.169Z,3.30
2022-10-18T15:52:39.511Z,3.43
2022-10-18T15:55:47.926Z,3.20
2022-10-18T15:58:22.246Z,3.87
2022-10-18T16:00:53.683Z,5.87
2022-10-18T16:03:23.901Z,4.30
2022-10-18T16:05:55.784Z,4.93
2022-10-18T16:08:26.378Z,4.37
2022-10-18T16:10:54.500Z,4.37
2022-10-18T16:13:22.548Z,5.27
2022-10-18T16:15:52.621Z,4.93
2022-10-18T16:18:21.450Z,8.53
2022-10-18T16:20:49.708Z,5.10
2022-10-18T16:23:20.466Z,15.90
2022-10-18T16:25:49.014Z,7.83
2022-10-18T16:28:19.610Z,6.50
2022-10-18T16:30:55.783Z,7.83
2022-10-18T16:33:24.675Z,6.60
2022-10-18T16:35:53.555Z,5.07
2022-10-18T16:38:32.672Z,10.93
2022-10-18T16:41:02.668Z,8.60
2022-10-18T16:43:31.130Z,5.23
2022-10-18T16:46:00.490Z,6.63
2022-10-18T16:48:28.952Z,4.83
2022-10-18T16:50:57.612Z,5.30
2022-10-18T16:53:26.291Z,4.57
2022-10-18T16:55:56.209Z,5.30
2022-10-18T16:58:25.297Z,7.17
2022-10-18T17:00:53.799Z,5.30
2022-10-18T17:03:23.643Z,5.83
2022-10-18T17:05:51.787Z,5.60
2022-10-18T17:08:22.073Z,5.23
2022-10-18T17:10:52.931Z,4.93
2022-10-18T17:13:21.120Z,5.27
2022-10-18T17:15:49.779Z,4.93
2022-10-18T17:18:21.670Z,5.53
2022-10-18T17:20:51.414Z,5.67
2022-10-18T17:23:19.781Z,4.87
2022-10-18T17:25:59.177Z,5.27
2022-10-18T17:28:33.414Z,5.20
2022-10-18T17:31:01.528Z,5.27
2022-10-18T17:33:29.649Z,5.80
2022-10-18T17:35:59.158Z,5.17
2022-10-18T17:38:27.317Z,4.80
2022-10-18T17:40:56.799Z,4.87
2022-10-18T17:43:24.885Z,6.07
2022-10-18T17:45:55.990Z,8.20
2022-10-18T17:48:24.845Z,6.17
2022-10-18T17:50:53.216Z,6.00
2022-10-18T17:53:28.344Z,5.40
2022-10-18T17:56:02.388Z,5.20
2022-10-18T17:58:31.414Z,5.67
2022-10-18T18:01:09.005Z,5.50
2022-10-18T18:03:37.114Z,5.93
2022-10-18T18:06:21.844Z,5.83
2022-10-18T18:08:51.634Z,5.80
2022-10-18T18:11:20.092Z,5.50
2022-10-18T18:13:48.271Z,6.23
2022-10-18T18:16:19.156Z,5.77
2022-10-18T18:18:48.473Z,6.03
2022-10-18T18:21:16.599Z,6.37
2022-10-18T18:23:45.293Z,6.37
2022-10-18T18:26:15.031Z,5.50
2022-10-18T18:28:43.283Z,6.70
2022-10-18T18:31:13.629Z,6.47
2022-10-18T18:33:42.714Z,7.40
2022-10-18T18:36:11.380Z,6.33
2022-10-18T18:38:42.559Z,6.43
2022-10-18T18:41:13.122Z,7.17
2022-10-18T18:43:44.466Z,7.30
2022-10-18T18:46:13.624Z,6.63
2022-10-18T18:48:42.040Z,6.70
2022-10-18T18:51:13.020Z,7.27
2022-10-18T18:53:41.806Z,7.13
2022-10-18T18:56:11.592Z,7.10
2022-10-18T18:58:42.558Z,7.30
2022-10-18T19:01:14.830Z,8.77
2022-10-18T19:03:43.043Z,6.63
2022-10-18T19:06:14.280Z,6.60
2022-10-18T19:08:44.751Z,7.80
2022-10-18T19:11:16.215Z,6.40
2022-10-18T19:13:44.586Z,8.73
2022-10-18T19:16:24.290Z,7.60
2022-10-18T19:18:57.250Z,9.37
2022-10-18T19:21:28.004Z,9.50
2022-10-18T19:23:57.077Z,8.63
2022-10-18T19:26:35.098Z,7.90
2022-10-18T19:29:09.602Z,7.53
2022-10-18T19:31:39.890Z,7.33
2022-10-18T19:34:09.415Z,11.20
2022-10-18T19:36:37.984Z,8.17
2022-10-18T19:39:07.926Z,8.20
2022-10-18T19:41:36.289Z,7.50
2022-10-18T19:44:04.500Z,8.07
2022-10-18T19:46:32.530Z,8.30
2022-10-18T19:49:01.942Z,7.47
2022-10-18T19:51:30.031Z,7.33
2022-10-18T19:53:58.756Z,7.10
2022-10-18T19:56:28.318Z,6.70
2022-10-18T19:58:58.749Z,7.50
2022-10-18T20:01:28.240Z,7.90
2022-10-18T20:03:57.030Z,8.20
2022-10-18T20:06:26.653Z,7.67
2022-10-18T20:08:54.763Z,7.40
2022-10-18T20:11:24.739Z,8.43
2022-10-18T20:13:53.078Z,7.97
2022-10-18T20:16:27.873Z,8.80
2022-10-18T20:18:57.699Z,8.10
2022-10-18T20:21:28.395Z,8.70
2022-10-18T20:23:57.009Z,8.10
2022-10-18T20:26:26.087Z,8.50
2022-10-18T20:28:57.786Z,9.40
2022-10-18T20:31:27.524Z,10.73
2022-10-18T20:33:57.762Z,13.00
2022-10-18T20:36:28.987Z,9.77
2022-10-18T20:38:57.314Z,8.83
2022-10-18T20:41:27.309Z,11.03
2022-10-18T20:43:57.209Z,9.43
2022-10-18T20:46:26.206Z,9.27
2022-10-18T20:48:55.213Z,9.07
2022-10-18T20:51:23.841Z,11.83
2022-10-18T20:53:53.637Z,13.60
2022-10-18T20:56:23.407Z,20.30
2022-10-18T20:58:54.671Z,19.07
2022-10-18T21:01:24.807Z,11.50
2022-10-18T21:03:54.458Z,12.10
2022-10-18T21:06:24.379Z,13.00
2022-10-18T21:08:56.331Z,11.27
2022-10-18T21:11:24.930Z,12.20
2022-10-18T21:13:53.583Z,9.77
2022-10-18T21:16:21.656Z,10.97
2022-10-18T21:18:49.969Z,11.07
2022-10-18T21:21:19.874Z,9.20
2022-10-18T21:23:48.342Z,10.20
2022-10-18T21:26:19.580Z,10.40
2022-10-18T21:28:50.753Z,10.73
2022-10-18T21:31:21.299Z,8.90
2022-10-18T21:33:53.164Z,9.17
2022-10-18T21:36:21.674Z,8.50
2022-10-18T21:38:50.091Z,8.97
2022-10-18T21:41:20.409Z,10.30
2022-10-18T21:43:50.926Z,9.67
2022-10-18T21:46:20.880Z,8.53
2022-10-18T21:48:50.693Z,10.10
2022-10-18T21:51:20.412Z,9.33
2022-10-18T21:53:49.588Z,13.80
2022-10-18T21:56:21.365Z,10.87
2022-10-18T21:58:49.701Z,9.27
2022-10-18T22:01:19.193Z,8.70
2022-10-18T22:03:49.652Z,8.90
2022-10-18T22:06:18.399Z,8.00
2022-10-18T22:08:50.003Z,9.40
2022-10-18T22:11:19.165Z,9.03
2022-10-18T22:13:48.709Z,8.97
2022-10-18T22:16:18.209Z,9.67
2022-10-18T22:18:48.456Z,8.47
2022-10-18T22:21:18.592Z,7.73
2022-10-18T22:23:48.594Z,12.27
2022-10-18T22:26:20.377Z,8.93
2022-10-18T22:28:55.742Z,8.57
2022-10-18T22:31:26.693Z,7.77
2022-10-18T22:33:56.418Z,9.37
2022-10-18T22:36:24.972Z,10.10
2022-10-18T22:38:53.136Z,8.37
2022-10-18T22:41:21.418Z,9.57
2022-10-18T22:43:51.478Z,8.77
2022-10-18T22:46:19.615Z,13.53
2022-10-18T22:48:48.064Z,11.33
2022-10-18T22:51:16.336Z,9.33
2022-10-18T22:53:45.011Z,9.07
2022-10-18T22:56:16.138Z,10.50
2022-10-18T22:58:44.552Z,11.53
2022-10-18T23:01:15.818Z,10.63
2022-10-18T23:03:44.175Z,10.00
2022-10-18T23:06:23.479Z,11.23
2022-10-18T23:08:52.159Z,9.47
2022-10-18T23:11:20.672Z,11.83
2022-10-18T23:13:49.317Z,14.00
2022-10-18T23:16:19.278Z,9.50
2022-10-18T23:18:51.793Z,8.83
2022-10-18T23:21:20.366Z,10.40
2022-10-18T23:23:48.578Z,9.80
2022-10-18T23:26:18.317Z,10.73
2022-10-18T23:28:48.857Z,10.40
2022-10-18T23:31:19.934Z,12.77
2022-10-18T23:33:49.297Z,10.50
2022-10-18T23:36:17.607Z,9.27
2022-10-18T23:38:46.199Z,10.37
2022-10-18T23:41:15.920Z,9.30
2022-10-18T23:43:44.522Z,9.80
2022-10-18T23:46:13.703Z,14.40
2022-10-18T23:48:43.105Z,10.37
2022-10-18T23:51:11.587Z,10.37
2022-10-18T23:53:39.875Z,10.27
2022-10-18T23:56:09.625Z,10.70
2022-10-18T23:58:38.215Z,9.03
